sensor_id;sensor_type;location;lat;lon;timestamp;P1;durP1;ratioP1;P2;durP2;ratioP2
8092;SDS011;4089;52.420;13.334;2023-06-24T00:00:02;80.40;;;28.07;;
8092;SDS011;4089;52.420;13.334;2023-06-24T00:02:34;84.27;;;29.00;;
8092;SDS011;4089;52.420;13.334;2023-06-24T00:05:03;73.73;;;26.40;;
8092;SDS011;4089;52.420;13.334;2023-06-24T00:07:32;94.23;;;29.90;;
8092;SDS011;4089;52.420;13.334;2023-06-24T00:10:02;84.70;;;28.87;;
8092;SDS011;4089;52.420;13.334;2023-06-24T00:12:29;74.07;;;27.77;;
8092;SDS011;4089;52.420;13.334;2023-06-24T00:14:56;93.43;;;34.27;;
8092;SDS011;4089;52.420;13.334;2023-06-24T00:17:23;101.50;;;32.37;;
8092;SDS011;4089;52.420;13.334;2023-06-24T00:19:50;100.40;;;34.40;;
8092;SDS011;4089;52.420;13.334;2023-06-24T00:22:20;107.47;;;35.10;;
8092;SDS011;4089;52.420;13.334;2023-06-24T00:24:48;112.97;;;39.73;;
8092;SDS011;4089;52.420;13.334;2023-06-24T00:27:16;123.17;;;37.93;;
8092;SDS011;4089;52.420;13.334;2023-06-24T00:29:43;127.30;;;38.50;;
8092;SDS011;4089;52.420;13.334;2023-06-24T00:32:10;89.73;;;34.10;;
8092;SDS011;4089;52.420;13.334;2023-06-24T00:34:36;115.13;;;37.40;;
8092;SDS011;4089;52.420;13.334;2023-06-24T00:37:03;116.90;;;38.83;;
8092;SDS011;4089;52.420;13.334;2023-06-24T00:39:30;129.77;;;40.67;;
8092;SDS011;4089;52.420;13.334;2023-06-24T00:41:57;115.10;;;38.50;;
8092;SDS011;4089;52.420;13.334;2023-06-24T00:44:24;121.73;;;39.67;;
8092;SDS011;4089;52.420;13.334;2023-06-24T00:46:51;107.67;;;38.00;;
8092;SDS011;4089;52.420;13.334;2023-06-24T00:49:17;121.57;;;38.37;;
8092;SDS011;4089;52.420;13.334;2023-06-24T00:51:44;121.03;;;38.30;;
8092;SDS011;4089;52.420;13.334;2023-06-24T00:54:17;112.73;;;39.67;;
8092;SDS011;4089;52.420;13.334;2023-06-24T00:56:44;116.97;;;38.87;;
8092;SDS011;4089;52.420;13.334;2023-06-24T00:59:13;117.53;;;38.43;;
8092;SDS011;4089;52.420;13.334;2023-06-24T01:01:41;109.20;;;36.87;;
8092;SDS011;4089;52.420;13.334;2023-06-24T01:04:10;109.53;;;37.03;;
8092;SDS011;4089;52.420;13.334;2023-06-24T01:06:37;111.87;;;37.93;;
8092;SDS011;4089;52.420;13.334;2023-06-24T01:09:10;97.57;;;35.10;;
8092;SDS011;4089;52.420;13.334;2023-06-24T01:11:37;100.90;;;35.67;;
8092;SDS011;4089;52.420;13.334;2023-06-24T01:14:04;106.77;;;37.70;;
8092;SDS011;4089;52.420;13.334;2023-06-24T01:16:41;89.63;;;35.53;;
8092;SDS011;4089;52.420;13.334;2023-06-24T01:33:38;101.40;;;36.40;;
8092;SDS011;4089;52.420;13.334;2023-06-24T01:36:16;84.43;;;32.60;;
8092;SDS011;4089;52.420;13.334;2023-06-24T01:38:48;87.60;;;32.93;;
8092;SDS011;4089;52.420;13.334;2023-06-24T01:41:21;87.80;;;32.80;;
8092;SDS011;4089;52.420;13.334;2023-06-24T01:43:51;87.00;;;34.43;;
8092;SDS011;4089;52.420;13.334;2023-06-24T01:46:21;89.20;;;34.33;;
8092;SDS011;4089;52.420;13.334;2023-06-24T01:48:52;100.13;;;36.60;;
8092;SDS011;4089;52.420;13.334;2023-06-24T01:51:24;91.10;;;34.00;;
8092;SDS011;4089;52.420;13.334;2023-06-24T01:53:58;103.07;;;36.57;;
8092;SDS011;4089;52.420;13.334;2023-06-24T01:56:28;97.43;;;33.03;;
8092;SDS011;4089;52.420;13.334;2023-06-24T01:58:57;99.40;;;37.13;;
8092;SDS011;4089;52.420;13.334;2023-06-24T02:01:27;109.50;;;39.20;;
8092;SDS011;4089;52.420;13.334;2023-06-24T02:03:55;113.27;;;39.27;;
8092;SDS011;4089;52.420;13.334;2023-06-24T02:06:23;112.83;;;36.50;;
8092;SDS011;4089;52.420;13.334;2023-06-24T02:08:52;84.63;;;34.40;;
8092;SDS011;4089;52.420;13.334;2023-06-24T02:11:21;87.03;;;33.60;;
8092;SDS011;4089;52.420;13.334;2023-06-24T02:13:50;76.67;;;30.97;;
8092;SDS011;4089;52.420;13.334;2023-06-24T02:16:19;78.00;;;29.67;;
8092;SDS011;4089;52.420;13.334;2023-06-24T02:18:47;80.30;;;29.50;;
8092;SDS011;4089;52.420;13.334;2023-06-24T02:21:16;72.17;;;27.40;;
8092;SDS011;4089;52.420;13.334;2023-06-24T02:23:47;76.07;;;29.37;;
8092;SDS011;4089;52.420;13.334;2023-06-24T02:26:14;62.90;;;25.27;;
8092;SDS011;4089;52.420;13.334;2023-06-24T02:28:42;61.23;;;23.40;;
8092;SDS011;4089;52.420;13.334;2023-06-24T02:31:12;63.00;;;21.60;;
8092;SDS011;4089;52.420;13.334;2023-06-24T02:33:40;51.43;;;20.97;;
8092;SDS011;4089;52.420;13.334;2023-06-24T02:36:08;51.17;;;18.73;;
8092;SDS011;4089;52.420;13.334;2023-06-24T02:38:35;58.40;;;19.63;;
8092;SDS011;4089;52.420;13.334;2023-06-24T02:41:02;48.87;;;17.50;;
8092;SDS011;4089;52.420;13.334;2023-06-24T02:43:30;52.70;;;19.33;;
8092;SDS011;4089;52.420;13.334;2023-06-24T02:45:59;56.10;;;18.60;;
8092;SDS011;4089;52.420;13.334;2023-06-24T02:48:28;49.53;;;15.83;;
8092;SDS011;4089;52.420;13.334;2023-06-24T02:50:58;50.30;;;17.83;;
8092;SDS011;4089;52.420;13.334;2023-06-24T02:53:26;50.47;;;18.23;;
8092;SDS011;4089;52.420;13.334;2023-06-24T02:55:54;48.47;;;17.30;;
8092;SDS011;4089;52.420;13.334;2023-06-24T02:58:22;53.97;;;18.33;;
8092;SDS011;4089;52.420;13.334;2023-06-24T03:00:50;49.57;;;15.90;;
8092;SDS011;4089;52.420;13.334;2023-06-24T03:03:17;50.73;;;16.70;;
8092;SDS011;4089;52.420;13.334;2023-06-24T03:05:44;57.33;;;17.50;;
8092;SDS011;4089;52.420;13.334;2023-06-24T03:08:14;49.97;;;16.57;;
8092;SDS011;4089;52.420;13.334;2023-06-24T03:10:41;56.60;;;18.07;;
8092;SDS011;4089;52.420;13.334;2023-06-24T03:13:09;50.80;;;17.77;;
8092;SDS011;4089;52.420;13.334;2023-06-24T03:15:35;47.53;;;16.43;;
8092;SDS011;4089;52.420;13.334;2023-06-24T03:18:02;49.33;;;17.10;;
8092;SDS011;4089;52.420;13.334;2023-06-24T03:20:29;52.17;;;16.97;;
8092;SDS011;4089;52.420;13.334;2023-06-24T03:23:07;54.70;;;17.83;;
8092;SDS011;4089;52.420;13.334;2023-06-24T03:25:35;54.63;;;18.07;;
8092;SDS011;4089;52.420;13.334;2023-06-24T03:28:02;54.13;;;16.27;;
8092;SDS011;4089;52.420;13.334;2023-06-24T03:30:33;53.83;;;16.50;;
8092;SDS011;4089;52.420;13.334;2023-06-24T03:33:01;49.33;;;17.00;;
8092;SDS011;4089;52.420;13.334;2023-06-24T03:35:28;54.97;;;17.37;;
8092;SDS011;4089;52.420;13.334;2023-06-24T03:37:56;53.27;;;15.93;;
8092;SDS011;4089;52.420;13.334;2023-06-24T03:40:22;51.77;;;17.80;;
8092;SDS011;4089;52.420;13.334;2023-06-24T03:42:49;56.23;;;17.33;;
8092;SDS011;4089;52.420;13.334;2023-06-24T03:45:16;49.10;;;17.80;;
8092;SDS011;4089;52.420;13.334;2023-06-24T03:47:43;53.20;;;17.37;;
8092;SDS011;4089;52.420;13.334;2023-06-24T03:50:10;53.40;;;19.80;;
8092;SDS011;4089;52.420;13.334;2023-06-24T03:52:36;48.37;;;16.23;;
8092;SDS011;4089;52.420;13.334;2023-06-24T03:55:03;49.90;;;16.90;;
8092;SDS011;4089;52.420;13.334;2023-06-24T03:57:31;46.57;;;17.93;;
8092;SDS011;4089;52.420;13.334;2023-06-24T03:59:58;58.80;;;18.07;;
8092;SDS011;4089;52.420;13.334;2023-06-24T04:02:25;52.03;;;17.27;;
8092;SDS011;4089;52.420;13.334;2023-06-24T04:04:53;53.37;;;17.90;;
8092;SDS011;4089;52.420;13.334;2023-06-24T04:07:22;56.40;;;16.30;;
8092;SDS011;4089;52.420;13.334;2023-06-24T04:09:54;55.37;;;16.73;;
8092;SDS011;4089;52.420;13.334;2023-06-24T04:12:22;58.60;;;17.67;;
8092;SDS011;4089;52.420;13.334;2023-06-24T04:14:49;49.37;;;17.30;;
8092;SDS011;4089;52.420;13.334;2023-06-24T04:17:16;53.30;;;17.17;;
8092;SDS011;4089;52.420;13.334;2023-06-24T04:19:43;49.87;;;16.93;;
8092;SDS011;4089;52.420;13.334;2023-06-24T04:22:10;50.70;;;17.90;;
8092;SDS011;4089;52.420;13.334;2023-06-24T04:24:37;49.87;;;17.47;;
8092;SDS011;4089;52.420;13.334;2023-06-24T04:27:05;48.40;;;15.97;;
8092;SDS011;4089;52.420;13.334;2023-06-24T04:29:33;47.57;;;17.03;;
8092;SDS011;4089;52.420;13.334;2023-06-24T04:32:00;53.20;;;18.97;;
8092;SDS011;4089;52.420;13.334;2023-06-24T04:34:27;50.60;;;17.23;;
8092;SDS011;4089;52.420;13.334;2023-06-24T04:36:54;47.63;;;17.17;;
8092;SDS011;4089;52.420;13.334;2023-06-24T04:39:21;50.57;;;16.67;;
8092;SDS011;4089;52.420;13.334;2023-06-24T04:41:48;49.30;;;18.00;;
8092;SDS011;4089;52.420;13.334;2023-06-24T04:44:15;48.87;;;16.67;;
8092;SDS011;4089;52.420;13.334;2023-06-24T04:46:41;55.43;;;16.40;;
8092;SDS011;4089;52.420;13.334;2023-06-24T04:49:08;51.53;;;16.03;;
8092;SDS011;4089;52.420;13.334;2023-06-24T04:51:35;47.00;;;16.33;;
8092;SDS011;4089;52.420;13.334;2023-06-24T04:54:03;45.53;;;16.53;;
8092;SDS011;4089;52.420;13.334;2023-06-24T04:56:30;46.17;;;15.60;;
8092;SDS011;4089;52.420;13.334;2023-06-24T04:58:57;48.47;;;15.80;;
8092;SDS011;4089;52.420;13.334;2023-06-24T05:01:23;52.63;;;19.00;;
8092;SDS011;4089;52.420;13.334;2023-06-24T05:03:50;49.63;;;16.93;;
8092;SDS011;4089;52.420;13.334;2023-06-24T05:06:17;52.57;;;18.40;;
8092;SDS011;4089;52.420;13.334;2023-06-24T05:08:44;46.80;;;17.10;;
8092;SDS011;4089;52.420;13.334;2023-06-24T05:11:11;45.33;;;16.30;;
8092;SDS011;4089;52.420;13.334;2023-06-24T05:13:38;42.37;;;16.27;;
8092;SDS011;4089;52.420;13.334;2023-06-24T05:16:06;51.10;;;16.23;;
8092;SDS011;4089;52.420;13.334;2023-06-24T05:18:32;49.53;;;17.47;;
8092;SDS011;4089;52.420;13.334;2023-06-24T05:20:59;46.43;;;17.67;;
8092;SDS011;4089;52.420;13.334;2023-06-24T05:23:26;43.73;;;15.73;;
8092;SDS011;4089;52.420;13.334;2023-06-24T05:25:53;45.97;;;15.60;;
8092;SDS011;4089;52.420;13.334;2023-06-24T05:28:20;46.90;;;15.63;;
8092;SDS011;4089;52.420;13.334;2023-06-24T05:30:46;43.43;;;15.77;;
8092;SDS011;4089;52.420;13.334;2023-06-24T05:33:13;44.57;;;16.07;;
8092;SDS011;4089;52.420;13.334;2023-06-24T05:35:42;47.70;;;15.13;;
8092;SDS011;4089;52.420;13.334;2023-06-24T05:38:09;43.83;;;14.60;;
8092;SDS011;4089;52.420;13.334;2023-06-24T05:40:36;38.83;;;13.63;;
8092;SDS011;4089;52.420;13.334;2023-06-24T05:43:03;39.03;;;14.30;;
8092;SDS011;4089;52.420;13.334;2023-06-24T05:45:30;47.40;;;14.43;;
8092;SDS011;4089;52.420;13.334;2023-06-24T05:47:57;38.93;;;13.73;;
8092;SDS011;4089;52.420;13.334;2023-06-24T05:50:24;39.80;;;12.90;;
8092;SDS011;4089;52.420;13.334;2023-06-24T05:52:51;41.10;;;13.83;;
8092;SDS011;4089;52.420;13.334;2023-06-24T05:55:18;36.80;;;13.10;;
8092;SDS011;4089;52.420;13.334;2023-06-24T05:57:45;39.43;;;13.20;;
8092;SDS011;4089;52.420;13.334;2023-06-24T06:00:11;42.60;;;13.17;;
8092;SDS011;4089;52.420;13.334;2023-06-24T06:02:38;36.57;;;12.97;;
8092;SDS011;4089;52.420;13.334;2023-06-24T06:05:06;37.97;;;13.00;;
8092;SDS011;4089;52.420;13.334;2023-06-24T06:07:33;38.97;;;14.03;;
8092;SDS011;4089;52.420;13.334;2023-06-24T06:10:01;36.33;;;13.50;;
8092;SDS011;4089;52.420;13.334;2023-06-24T06:12:28;41.17;;;12.50;;
8092;SDS011;4089;52.420;13.334;2023-06-24T06:14:54;40.40;;;14.30;;
8092;SDS011;4089;52.420;13.334;2023-06-24T06:17:21;35.03;;;12.40;;
8092;SDS011;4089;52.420;13.334;2023-06-24T06:19:48;37.43;;;12.40;;
8092;SDS011;4089;52.420;13.334;2023-06-24T06:22:17;43.03;;;12.07;;
8092;SDS011;4089;52.420;13.334;2023-06-24T06:24:44;38.13;;;12.47;;
8092;SDS011;4089;52.420;13.334;2023-06-24T06:27:12;35.03;;;11.83;;
8092;SDS011;4089;52.420;13.334;2023-06-24T06:29:40;36.77;;;12.33;;
8092;SDS011;4089;52.420;13.334;2023-06-24T06:32:07;37.77;;;11.57;;
8092;SDS011;4089;52.420;13.334;2023-06-24T06:34:34;40.03;;;12.70;;
8092;SDS011;4089;52.420;13.334;2023-06-24T06:37:01;35.00;;;9.63;;
8092;SDS011;4089;52.420;13.334;2023-06-24T06:39:27;32.57;;;10.43;;
8092;SDS011;4089;52.420;13.334;2023-06-24T06:41:54;36.67;;;11.67;;
8092;SDS011;4089;52.420;13.334;2023-06-24T06:44:21;38.53;;;11.83;;
8092;SDS011;4089;52.420;13.334;2023-06-24T06:46:48;32.67;;;9.93;;
8092;SDS011;4089;52.420;13.334;2023-06-24T06:49:15;33.20;;;10.10;;
8092;SDS011;4089;52.420;13.334;2023-06-24T06:51:42;32.20;;;9.60;;
8092;SDS011;4089;52.420;13.334;2023-06-24T06:54:08;34.70;;;9.50;;
8092;SDS011;4089;52.420;13.334;2023-06-24T06:56:35;38.43;;;9.80;;
8092;SDS011;4089;52.420;13.334;2023-06-24T06:59:02;32.57;;;10.00;;
8092;SDS011;4089;52.420;13.334;2023-06-24T07:01:29;34.50;;;10.40;;
8092;SDS011;4089;52.420;13.334;2023-06-24T07:03:56;35.73;;;9.03;;
8092;SDS011;4089;52.420;13.334;2023-06-24T07:06:23;29.87;;;8.00;;
8092;SDS011;4089;52.420;13.334;2023-06-24T07:08:49;33.57;;;7.77;;
8092;SDS011;4089;52.420;13.334;2023-06-24T07:11:17;30.93;;;7.80;;
8092;SDS011;4089;52.420;13.334;2023-06-24T07:13:44;27.13;;;7.03;;
8092;SDS011;4089;52.420;13.334;2023-06-24T07:16:12;31.30;;;8.40;;
8092;SDS011;4089;52.420;13.334;2023-06-24T07:18:39;28.47;;;7.70;;
8092;SDS011;4089;52.420;13.334;2023-06-24T07:21:06;28.03;;;7.90;;
8092;SDS011;4089;52.420;13.334;2023-06-24T07:23:32;34.10;;;9.20;;
8092;SDS011;4089;52.420;13.334;2023-06-24T07:25:59;30.33;;;7.10;;
8092;SDS011;4089;52.420;13.334;2023-06-24T07:28:29;29.83;;;7.73;;
8092;SDS011;4089;52.420;13.334;2023-06-24T07:30:56;32.10;;;7.67;;
8092;SDS011;4089;52.420;13.334;2023-06-24T07:33:23;28.67;;;8.40;;
8092;SDS011;4089;52.420;13.334;2023-06-24T07:35:49;28.60;;;7.90;;
8092;SDS011;4089;52.420;13.334;2023-06-24T07:38:16;31.83;;;6.90;;
8092;SDS011;4089;52.420;13.334;2023-06-24T07:40:43;27.17;;;6.67;;
8092;SDS011;4089;52.420;13.334;2023-06-24T07:43:10;26.20;;;6.53;;
8092;SDS011;4089;52.420;13.334;2023-06-24T07:45:37;29.20;;;7.10;;
8092;SDS011;4089;52.420;13.334;2023-06-24T07:48:04;26.07;;;6.40;;
8092;SDS011;4089;52.420;13.334;2023-06-24T07:50:31;33.47;;;7.33;;
8092;SDS011;4089;52.420;13.334;2023-06-24T07:52:58;31.83;;;7.00;;
8092;SDS011;4089;52.420;13.334;2023-06-24T07:55:25;27.63;;;6.53;;
8092;SDS011;4089;52.420;13.334;2023-06-24T07:57:52;27.43;;;6.70;;
8092;SDS011;4089;52.420;13.334;2023-06-24T08:00:19;30.33;;;6.43;;
8092;SDS011;4089;52.420;13.334;2023-06-24T08:02:46;30.80;;;6.90;;
8092;SDS011;4089;52.420;13.334;2023-06-24T08:05:13;28.03;;;6.50;;
8092;SDS011;4089;52.420;13.334;2023-06-24T08:07:39;29.87;;;6.73;;
8092;SDS011;4089;52.420;13.334;2023-06-24T08:10:06;27.40;;;6.30;;
8092;SDS011;4089;52.420;13.334;2023-06-24T08:12:33;29.00;;;7.40;;
8092;SDS011;4089;52.420;13.334;2023-06-24T08:15:00;26.30;;;6.67;;
8092;SDS011;4089;52.420;13.334;2023-06-24T08:17:27;31.00;;;6.53;;
8092;SDS011;4089;52.420;13.334;2023-06-24T08:19:54;34.37;;;6.90;;
8092;SDS011;4089;52.420;13.334;2023-06-24T08:22:21;32.83;;;7.57;;
8092;SDS011;4089;52.420;13.334;2023-06-24T08:24:48;31.93;;;6.50;;
8092;SDS011;4089;52.420;13.334;2023-06-24T08:27:15;36.27;;;7.50;;
8092;SDS011;4089;52.420;13.334;2023-06-24T08:30:19;29.27;;;7.47;;
8092;SDS011;4089;52.420;13.334;2023-06-24T08:32:46;29.90;;;7.00;;
8092;SDS011;4089;52.420;13.334;2023-06-24T08:35:12;30.80;;;6.60;;
8092;SDS011;4089;52.420;13.334;2023-06-24T08:37:39;28.30;;;6.00;;
8092;SDS011;4089;52.420;13.334;2023-06-24T08:40:06;30.00;;;6.83;;
8092;SDS011;4089;52.420;13.334;2023-06-24T08:42:33;30.13;;;6.53;;
8092;SDS011;4089;52.420;13.334;2023-06-24T08:48:42;25.97;;;6.30;;
8092;SDS011;4089;52.420;13.334;2023-06-24T08:51:11;25.50;;;5.23;;
8092;SDS011;4089;52.420;13.334;2023-06-24T08:53:43;30.17;;;6.70;;
8092;SDS011;4089;52.420;13.334;2023-06-24T08:56:11;26.57;;;6.63;;
8092;SDS011;4089;52.420;13.334;2023-06-24T08:58:40;26.80;;;6.23;;
8092;SDS011;4089;52.420;13.334;2023-06-24T09:01:07;26.80;;;5.80;;
8092;SDS011;4089;52.420;13.334;2023-06-24T09:03:34;28.10;;;6.63;;
8092;SDS011;4089;52.420;13.334;2023-06-24T09:06:02;28.23;;;6.30;;
8092;SDS011;4089;52.420;13.334;2023-06-24T09:08:29;30.23;;;6.37;;
8092;SDS011;4089;52.420;13.334;2023-06-24T09:10:55;26.23;;;5.97;;
8092;SDS011;4089;52.420;13.334;2023-06-24T09:13:43;30.37;;;6.20;;
8092;SDS011;4089;52.420;13.334;2023-06-24T09:16:13;30.23;;;6.07;;
8092;SDS011;4089;52.420;13.334;2023-06-24T09:18:41;25.87;;;5.93;;
8092;SDS011;4089;52.420;13.334;2023-06-24T09:21:10;28.57;;;5.83;;
8092;SDS011;4089;52.420;13.334;2023-06-24T09:23:37;28.33;;;6.10;;
8092;SDS011;4089;52.420;13.334;2023-06-24T09:26:05;32.03;;;5.10;;
8092;SDS011;4089;52.420;13.334;2023-06-24T09:28:36;28.57;;;5.10;;
8092;SDS011;4089;52.420;13.334;2023-06-24T09:31:09;25.10;;;5.40;;
8092;SDS011;4089;52.420;13.334;2023-06-24T09:33:45;26.63;;;5.90;;
8092;SDS011;4089;52.420;13.334;2023-06-24T09:36:13;27.37;;;5.23;;
8092;SDS011;4089;52.420;13.334;2023-06-24T09:38:41;26.40;;;4.10;;
8092;SDS011;4089;52.420;13.334;2023-06-24T09:41:10;24.97;;;4.20;;
8092;SDS011;4089;52.420;13.334;2023-06-24T09:43:40;28.53;;;4.80;;
8092;SDS011;4089;52.420;13.334;2023-06-24T09:46:10;27.30;;;4.83;;
8092;SDS011;4089;52.420;13.334;2023-06-24T09:48:38;26.00;;;4.10;;
8092;SDS011;4089;52.420;13.334;2023-06-24T09:51:05;23.47;;;3.83;;
8092;SDS011;4089;52.420;13.334;2023-06-24T09:53:33;29.40;;;4.50;;
8092;SDS011;4089;52.420;13.334;2023-06-24T09:56:02;25.17;;;4.10;;
8092;SDS011;4089;52.420;13.334;2023-06-24T09:58:31;27.23;;;3.83;;
8092;SDS011;4089;52.420;13.334;2023-06-24T10:01:02;32.03;;;4.63;;
8092;SDS011;4089;52.420;13.334;2023-06-24T10:03:32;24.90;;;4.23;;
8092;SDS011;4089;52.420;13.334;2023-06-24T10:06:01;26.37;;;4.50;;
8092;SDS011;4089;52.420;13.334;2023-06-24T10:08:29;23.60;;;3.70;;
8092;SDS011;4089;52.420;13.334;2023-06-24T10:10:56;29.10;;;4.93;;
8092;SDS011;4089;52.420;13.334;2023-06-24T10:13:25;25.60;;;4.10;;
8092;SDS011;4089;52.420;13.334;2023-06-24T10:15:52;24.00;;;3.90;;
8092;SDS011;4089;52.420;13.334;2023-06-24T10:20:57;28.53;;;3.90;;
8092;SDS011;4089;52.420;13.334;2023-06-24T10:23:31;26.73;;;3.60;;
8092;SDS011;4089;52.420;13.334;2023-06-24T10:26:26;25.60;;;4.37;;
8092;SDS011;4089;52.420;13.334;2023-06-24T10:34:24;29.77;;;4.90;;
8092;SDS011;4089;52.420;13.334;2023-06-24T10:39:37;29.13;;;4.03;;
8092;SDS011;4089;52.420;13.334;2023-06-24T10:47:37;28.10;;;4.43;;
8092;SDS011;4089;52.420;13.334;2023-06-24T10:50:06;28.57;;;4.70;;
8092;SDS011;4089;52.420;13.334;2023-06-24T10:52:38;25.07;;;4.40;;
8092;SDS011;4089;52.420;13.334;2023-06-24T10:55:06;26.27;;;4.20;;
8092;SDS011;4089;52.420;13.334;2023-06-24T10:57:33;25.50;;;4.60;;
8092;SDS011;4089;52.420;13.334;2023-06-24T11:00:00;28.23;;;4.20;;
8092;SDS011;4089;52.420;13.334;2023-06-24T11:02:29;26.93;;;4.90;;
8092;SDS011;4089;52.420;13.334;2023-06-24T11:04:57;26.70;;;4.30;;
8092;SDS011;4089;52.420;13.334;2023-06-24T11:07:30;25.17;;;4.20;;
8092;SDS011;4089;52.420;13.334;2023-06-24T11:10:01;26.20;;;4.17;;
8092;SDS011;4089;52.420;13.334;2023-06-24T11:12:35;27.00;;;4.20;;
8092;SDS011;4089;52.420;13.334;2023-06-24T11:15:04;26.00;;;4.20;;
8092;SDS011;4089;52.420;13.334;2023-06-24T11:17:32;26.73;;;4.43;;
8092;SDS011;4089;52.420;13.334;2023-06-24T11:20:01;24.53;;;3.83;;
8092;SDS011;4089;52.420;13.334;2023-06-24T11:22:32;25.60;;;4.03;;
8092;SDS011;4089;52.420;13.334;2023-06-24T11:24:59;25.47;;;4.07;;
8092;SDS011;4089;52.420;13.334;2023-06-24T11:29:54;24.13;;;3.60;;
8092;SDS011;4089;52.420;13.334;2023-06-24T11:32:22;27.40;;;4.13;;
8092;SDS011;4089;52.420;13.334;2023-06-24T11:34:48;27.30;;;4.23;;
8092;SDS011;4089;52.420;13.334;2023-06-24T11:37:17;26.00;;;4.50;;
8092;SDS011;4089;52.420;13.334;2023-06-24T11:39:55;26.77;;;4.03;;
8092;SDS011;4089;52.420;13.334;2023-06-24T11:42:40;26.03;;;3.83;;
8092;SDS011;4089;52.420;13.334;2023-06-24T11:45:12;34.53;;;3.77;;
8092;SDS011;4089;52.420;13.334;2023-06-24T11:47:42;26.40;;;3.80;;
8092;SDS011;4089;52.420;13.334;2023-06-24T11:50:09;32.50;;;3.87;;
8092;SDS011;4089;52.420;13.334;2023-06-24T11:52:43;26.00;;;4.03;;
8092;SDS011;4089;52.420;13.334;2023-06-24T11:55:12;26.77;;;4.60;;
8092;SDS011;4089;52.420;13.334;2023-06-24T11:57:57;28.47;;;3.87;;
8092;SDS011;4089;52.420;13.334;2023-06-24T12:00:25;26.40;;;4.00;;
8092;SDS011;4089;52.420;13.334;2023-06-24T12:03:13;29.17;;;4.77;;
8092;SDS011;4089;52.420;13.334;2023-06-24T12:05:40;27.40;;;4.10;;
8092;SDS011;4089;52.420;13.334;2023-06-24T12:08:12;25.50;;;4.00;;
8092;SDS011;4089;52.420;13.334;2023-06-24T12:10:42;31.33;;;4.83;;
8092;SDS011;4089;52.420;13.334;2023-06-24T12:13:10;29.00;;;3.83;;
8092;SDS011;4089;52.420;13.334;2023-06-24T12:15:37;31.03;;;4.03;;
8092;SDS011;4089;52.420;13.334;2023-06-24T12:18:04;27.30;;;4.13;;
8092;SDS011;4089;52.420;13.334;2023-06-24T12:20:31;28.83;;;4.30;;
8092;SDS011;4089;52.420;13.334;2023-06-24T12:23:03;29.57;;;4.97;;
8092;SDS011;4089;52.420;13.334;2023-06-24T12:25:30;25.77;;;4.20;;
8092;SDS011;4089;52.420;13.334;2023-06-24T12:27:57;26.87;;;4.63;;
8092;SDS011;4089;52.420;13.334;2023-06-24T12:30:25;27.00;;;4.10;;
8092;SDS011;4089;52.420;13.334;2023-06-24T12:32:52;26.63;;;4.47;;
8092;SDS011;4089;52.420;13.334;2023-06-24T12:35:19;26.13;;;4.00;;
8092;SDS011;4089;52.420;13.334;2023-06-24T12:37:46;28.17;;;4.10;;
8092;SDS011;4089;52.420;13.334;2023-06-24T12:40:14;26.80;;;4.20;;
8092;SDS011;4089;52.420;13.334;2023-06-24T12:42:40;24.20;;;3.13;;
8092;SDS011;4089;52.420;13.334;2023-06-24T12:45:07;27.40;;;3.77;;
8092;SDS011;4089;52.420;13.334;2023-06-24T12:47:34;37.70;;;3.87;;
8092;SDS011;4089;52.420;13.334;2023-06-24T12:50:01;34.70;;;4.03;;
8092;SDS011;4089;52.420;13.334;2023-06-24T12:52:35;26.27;;;4.23;;
8092;SDS011;4089;52.420;13.334;2023-06-24T12:55:01;26.30;;;4.33;;
8092;SDS011;4089;52.420;13.334;2023-06-24T12:57:30;24.80;;;3.67;;
8092;SDS011;4089;52.420;13.334;2023-06-24T12:59:57;26.03;;;4.07;;
8092;SDS011;4089;52.420;13.334;2023-06-24T13:02:23;32.53;;;5.17;;
8092;SDS011;4089;52.420;13.334;2023-06-24T13:04:51;26.30;;;4.20;;
8092;SDS011;4089;52.420;13.334;2023-06-24T13:07:18;29.93;;;4.30;;
8092;SDS011;4089;52.420;13.334;2023-06-24T13:09:45;30.80;;;4.53;;
8092;SDS011;4089;52.420;13.334;2023-06-24T13:12:12;27.03;;;4.17;;
8092;SDS011;4089;52.420;13.334;2023-06-24T13:14:39;28.30;;;3.73;;
8092;SDS011;4089;52.420;13.334;2023-06-24T13:17:05;30.53;;;4.90;;
8092;SDS011;4089;52.420;13.334;2023-06-24T13:19:32;30.87;;;4.80;;
8092;SDS011;4089;52.420;13.334;2023-06-24T13:21:59;27.00;;;5.27;;
8092;SDS011;4089;52.420;13.334;2023-06-24T13:24:26;27.67;;;4.60;;
8092;SDS011;4089;52.420;13.334;2023-06-24T13:26:53;26.70;;;5.00;;
8092;SDS011;4089;52.420;13.334;2023-06-24T13:29:20;26.60;;;4.70;;
8092;SDS011;4089;52.420;13.334;2023-06-24T13:31:47;26.10;;;4.73;;
8092;SDS011;4089;52.420;13.334;2023-06-24T13:34:14;28.53;;;4.67;;
8092;SDS011;4089;52.420;13.334;2023-06-24T13:36:40;26.13;;;4.53;;
8092;SDS011;4089;52.420;13.334;2023-06-24T13:39:08;28.10;;;4.47;;
8092;SDS011;4089;52.420;13.334;2023-06-24T13:41:39;31.63;;;5.43;;
8092;SDS011;4089;52.420;13.334;2023-06-24T13:44:08;29.53;;;5.00;;
8092;SDS011;4089;52.420;13.334;2023-06-24T13:46:35;30.17;;;5.40;;
8092;SDS011;4089;52.420;13.334;2023-06-24T13:49:02;31.50;;;4.30;;
8092;SDS011;4089;52.420;13.334;2023-06-24T13:51:31;28.73;;;4.60;;
8092;SDS011;4089;52.420;13.334;2023-06-24T13:53:58;28.87;;;4.50;;
8092;SDS011;4089;52.420;13.334;2023-06-24T13:56:26;31.70;;;4.90;;
8092;SDS011;4089;52.420;13.334;2023-06-24T13:58:53;30.00;;;4.60;;
8092;SDS011;4089;52.420;13.334;2023-06-24T14:01:21;31.70;;;4.73;;
8092;SDS011;4089;52.420;13.334;2023-06-24T14:03:49;27.07;;;4.07;;
8092;SDS011;4089;52.420;13.334;2023-06-24T14:06:17;29.33;;;4.80;;
8092;SDS011;4089;52.420;13.334;2023-06-24T14:08:45;28.17;;;4.57;;
8092;SDS011;4089;52.420;13.334;2023-06-24T14:11:12;32.53;;;4.40;;
8092;SDS011;4089;52.420;13.334;2023-06-24T14:13:40;29.70;;;5.07;;
8092;SDS011;4089;52.420;13.334;2023-06-24T14:16:08;28.07;;;4.37;;
8092;SDS011;4089;52.420;13.334;2023-06-24T14:18:36;28.73;;;4.93;;
8092;SDS011;4089;52.420;13.334;2023-06-24T14:21:04;34.10;;;4.43;;
8092;SDS011;4089;52.420;13.334;2023-06-24T14:23:32;28.60;;;4.40;;
8092;SDS011;4089;52.420;13.334;2023-06-24T14:25:59;28.47;;;3.90;;
8092;SDS011;4089;52.420;13.334;2023-06-24T14:28:26;28.07;;;4.20;;
8092;SDS011;4089;52.420;13.334;2023-06-24T14:30:53;28.77;;;4.03;;
8092;SDS011;4089;52.420;13.334;2023-06-24T14:33:20;28.70;;;4.37;;
8092;SDS011;4089;52.420;13.334;2023-06-24T14:35:47;32.13;;;5.13;;
8092;SDS011;4089;52.420;13.334;2023-06-24T14:38:14;28.30;;;3.77;;
8092;SDS011;4089;52.420;13.334;2023-06-24T14:40:41;28.33;;;4.07;;
8092;SDS011;4089;52.420;13.334;2023-06-24T14:43:08;30.03;;;4.70;;
8092;SDS011;4089;52.420;13.334;2023-06-24T14:45:34;27.63;;;4.37;;
8092;SDS011;4089;52.420;13.334;2023-06-24T14:48:02;27.50;;;3.80;;
8092;SDS011;4089;52.420;13.334;2023-06-24T14:50:29;28.20;;;4.33;;
8092;SDS011;4089;52.420;13.334;2023-06-24T14:52:56;30.50;;;4.87;;
8092;SDS011;4089;52.420;13.334;2023-06-24T14:55:22;28.30;;;4.40;;
8092;SDS011;4089;52.420;13.334;2023-06-24T14:57:49;31.57;;;5.30;;
8092;SDS011;4089;52.420;13.334;2023-06-24T15:00:16;30.43;;;4.40;;
8092;SDS011;4089;52.420;13.334;2023-06-24T15:02:43;28.10;;;4.73;;
8092;SDS011;4089;52.420;13.334;2023-06-24T15:05:10;30.20;;;5.40;;
8092;SDS011;4089;52.420;13.334;2023-06-24T15:07:37;28.47;;;4.77;;
8092;SDS011;4089;52.420;13.334;2023-06-24T15:10:04;30.03;;;4.80;;
8092;SDS011;4089;52.420;13.334;2023-06-24T15:12:32;29.10;;;4.80;;
8092;SDS011;4089;52.420;13.334;2023-06-24T15:15:00;32.37;;;4.60;;
8092;SDS011;4089;52.420;13.334;2023-06-24T15:17:27;32.17;;;5.43;;
8092;SDS011;4089;52.420;13.334;2023-06-24T15:19:56;32.20;;;4.53;;
8092;SDS011;4089;52.420;13.334;2023-06-24T15:22:23;29.60;;;5.47;;